createdAt,value
2023-02-02T00:00:48.633Z,28.67
2023-02-02T00:03:15.677Z,20.52
2023-02-02T00:05:46.749Z,29.02
2023-02-02T00:08:13.531Z,35.25
2023-02-02T00:10:40.124Z,18.73
2023-02-02T00:13:06.616Z,21.17
2023-02-02T00:15:33.187Z,27.10
2023-02-02T00:17:59.735Z,22.33
2023-02-02T00:20:26.205Z,23.52
2023-02-02T00:22:52.992Z,26.63
2023-02-02T00:25:19.543Z,25.13
2023-02-02T00:27:46.064Z,25.42
2023-02-02T00:30:13.159Z,25.73
2023-02-02T00:32:40.779Z,24.48
2023-02-02T00:35:08.433Z,31.45
2023-02-02T00:37:35.265Z,29.88
2023-02-02T00:40:02.105Z,27.15
2023-02-02T00:42:28.580Z,37.03
2023-02-02T00:45:13.929Z,30.30
2023-02-02T00:47:40.442Z,26.70
2023-02-02T00:50:07.265Z,31.00
2023-02-02T00:52:33.791Z,21.48
2023-02-02T00:55:00.301Z,23.58
2023-02-02T00:57:28.893Z,31.58
2023-02-02T00:59:55.601Z,29.42
2023-02-02T01:02:22.129Z,20.70
2023-02-02T01:04:48.907Z,20.27
2023-02-02T01:07:15.434Z,22.17
2023-02-02T01:09:41.917Z,27.70
2023-02-02T01:12:08.398Z,27.90
2023-02-02T01:14:34.901Z,17.25
2023-02-02T01:17:01.501Z,24.73
2023-02-02T01:19:28.012Z,27.02
2023-02-02T01:21:54.614Z,17.33
2023-02-02T01:24:21.127Z,19.35
2023-02-02T01:26:47.665Z,34.40
2023-02-02T01:29:15.546Z,23.77
2023-02-02T01:31:42.341Z,25.98
2023-02-02T01:34:10.043Z,22.75
2023-02-02T01:36:36.542Z,29.92
2023-02-02T01:39:03.308Z,35.75
2023-02-02T01:41:30.441Z,32.28
2023-02-02T01:44:02.929Z,24.38
2023-02-02T01:46:34.477Z,23.73
2023-02-02T01:49:08.089Z,30.98
2023-02-02T01:51:55.940Z,27.00
2023-02-02T01:54:31.727Z,26.08
2023-02-02T01:57:01.471Z,21.48
2023-02-02T01:59:28.592Z,29.27
2023-02-02T02:01:55.306Z,24.60
2023-02-02T02:04:23.887Z,20.63
2023-02-02T02:06:53.409Z,26.13
2023-02-02T02:09:20.292Z,22.85
2023-02-02T02:11:46.932Z,21.00
2023-02-02T02:14:33.607Z,27.63
2023-02-02T02:17:06.721Z,20.65
2023-02-02T02:20:06.537Z,25.70
2023-02-02T02:23:02.992Z,17.45
2023-02-02T02:26:04.105Z,29.42
2023-02-02T02:29:08.325Z,25.42
2023-02-02T02:31:34.972Z,28.02
2023-02-02T02:34:18.411Z,29.27
2023-02-02T02:36:44.946Z,26.33
2023-02-02T02:40:08.127Z,30.17
2023-02-02T02:42:39.152Z,22.38
2023-02-02T02:45:07.648Z,27.23
2023-02-02T02:47:35.072Z,26.25
2023-02-02T02:50:02.914Z,22.92
2023-02-02T02:52:29.666Z,19.63
2023-02-02T02:54:58.042Z,28.92
2023-02-02T02:57:52.722Z,24.58
2023-02-02T03:00:30.212Z,26.58
2023-02-02T03:03:04.561Z,23.63
2023-02-02T03:05:36.689Z,30.85
2023-02-02T03:08:24.156Z,35.30
2023-02-02T03:10:51.482Z,24.38
2023-02-02T03:13:18.750Z,31.55
2023-02-02T03:15:45.844Z,33.75
2023-02-02T03:18:17.352Z,31.80
2023-02-02T03:20:45.126Z,35.42
2023-02-02T03:23:11.896Z,26.27
2023-02-02T03:25:38.504Z,26.80
2023-02-02T03:28:06.326Z,24.63
2023-02-02T03:30:33.693Z,39.55
2023-02-02T03:33:00.377Z,30.15
2023-02-02T03:35:26.972Z,31.80
2023-02-02T03:37:53.527Z,20.08
2023-02-02T03:40:20.037Z,34.63
2023-02-02T03:42:46.585Z,37.25
2023-02-02T03:45:13.293Z,37.67
2023-02-02T03:47:39.825Z,38.50
2023-02-02T03:50:09.098Z,33.15
2023-02-02T03:52:36.295Z,35.03
2023-02-02T03:55:02.962Z,28.13
2023-02-02T03:57:29.447Z,45.88
2023-02-02T03:59:55.951Z,30.70
2023-02-02T04:02:22.463Z,39.20
2023-02-02T04:04:48.970Z,30.77
2023-02-02T04:07:15.571Z,33.75
2023-02-02T04:09:42.042Z,54.17
2023-02-02T04:12:08.524Z,39.92
2023-02-02T04:14:35.017Z,45.22
2023-02-02T04:17:01.591Z,41.03
2023-02-02T04:19:28.126Z,45.55
2023-02-02T04:21:54.596Z,32.53
2023-02-02T04:24:21.078Z,39.17
2023-02-02T04:26:47.747Z,29.60
2023-02-02T04:29:14.424Z,38.33
2023-02-02T04:31:40.953Z,30.83
2023-02-02T04:34:07.463Z,45.60
2023-02-02T04:36:33.977Z,27.27
2023-02-02T04:39:00.485Z,36.70
2023-02-02T04:41:26.998Z,39.85
2023-02-02T04:43:53.531Z,40.00
2023-02-02T04:46:20.108Z,44.53
2023-02-02T04:48:49.130Z,32.15
2023-02-02T04:51:15.866Z,43.15
2023-02-02T04:53:42.671Z,36.40
2023-02-02T04:56:12.972Z,29.38
2023-02-02T04:58:39.622Z,30.80
2023-02-02T05:01:17.247Z,33.92
2023-02-02T05:03:44.000Z,24.67
2023-02-02T05:06:10.645Z,25.60
2023-02-02T05:08:37.322Z,21.27
2023-02-02T05:11:11.725Z,29.92
2023-02-02T05:13:38.377Z,46.45
2023-02-02T05:16:05.463Z,33.17
2023-02-02T05:18:32.559Z,27.17
2023-02-02T05:21:01.357Z,28.70
2023-02-02T05:23:28.007Z,35.30
2023-02-02T05:25:54.825Z,28.90
2023-02-02T05:28:22.561Z,34.50
2023-02-02T05:30:49.150Z,28.55
2023-02-02T05:33:18.237Z,26.88
2023-02-02T05:35:45.872Z,40.80
2023-02-02T05:38:12.407Z,30.55
2023-02-02T05:40:38.885Z,27.13
2023-02-02T05:43:05.377Z,26.95
2023-02-02T05:45:32.937Z,42.13
2023-02-02T05:47:59.773Z,33.85
2023-02-02T05:50:26.311Z,28.85
2023-02-02T05:53:02.063Z,34.38
2023-02-02T05:55:28.592Z,30.27
2023-02-02T05:57:55.718Z,31.90
2023-02-02T06:00:22.713Z,29.38
2023-02-02T06:02:49.434Z,26.85
2023-02-02T06:05:16.001Z,31.85
2023-02-02T06:07:42.521Z,38.42
2023-02-02T06:10:09.314Z,31.15
2023-02-02T06:12:35.845Z,32.30
2023-02-02T06:15:03.943Z,30.13
2023-02-02T06:17:30.451Z,34.25
2023-02-02T06:19:56.919Z,21.10
2023-02-02T06:22:23.519Z,33.38
2023-02-02T06:24:50.056Z,31.83
2023-02-02T06:27:16.639Z,31.08
2023-02-02T06:29:43.193Z,28.02
2023-02-02T06:32:09.771Z,31.08
2023-02-02T06:34:36.335Z,32.88
2023-02-02T06:37:02.905Z,26.67
2023-02-02T06:39:31.454Z,30.77
2023-02-02T06:41:59.333Z,36.33
2023-02-02T06:44:29.434Z,27.92
2023-02-02T06:46:55.895Z,28.63
2023-02-02T06:49:22.426Z,34.47
2023-02-02T06:51:48.993Z,28.02
2023-02-02T06:54:15.574Z,35.40
2023-02-02T06:56:42.080Z,37.47
2023-02-02T06:59:08.626Z,28.85
2023-02-02T07:01:35.264Z,49.15
2023-02-02T07:04:02.084Z,30.63
2023-02-02T07:06:29.031Z,23.27
2023-02-02T07:09:01.528Z,30.75
2023-02-02T07:11:36.949Z,33.90
2023-02-02T07:14:04.804Z,26.98
2023-02-02T07:16:32.112Z,32.13
2023-02-02T07:18:58.625Z,27.58
2023-02-02T07:21:28.204Z,24.92
2023-02-02T07:23:54.727Z,39.67
2023-02-02T07:26:21.393Z,28.33
2023-02-02T07:28:47.941Z,27.17
2023-02-02T07:31:15.552Z,38.60
2023-02-02T07:33:43.408Z,39.85
2023-02-02T07:36:11.367Z,46.33
2023-02-02T07:38:38.292Z,30.23
2023-02-02T07:41:04.914Z,34.20
2023-02-02T07:43:31.593Z,41.58
2023-02-02T07:46:06.409Z,29.45
2023-02-02T07:48:32.949Z,27.50
2023-02-02T07:51:03.811Z,37.25
2023-02-02T07:53:30.753Z,32.55
2023-02-02T07:56:16.798Z,37.63
2023-02-02T07:58:43.792Z,34.08
2023-02-02T08:01:13.186Z,36.80
2023-02-02T08:03:40.432Z,36.70
2023-02-02T08:06:12.939Z,35.90
2023-02-02T08:08:39.874Z,30.13
2023-02-02T08:11:09.946Z,45.38
2023-02-02T08:13:36.672Z,30.00
2023-02-02T08:16:03.409Z,42.03
2023-02-02T08:18:29.907Z,43.72
2023-02-02T08:21:04.948Z,43.65
2023-02-02T08:23:31.760Z,51.55
2023-02-02T08:26:11.445Z,48.10
2023-02-02T08:28:39.172Z,50.05
2023-02-02T08:31:24.476Z,44.90
2023-02-02T08:33:51.734Z,47.20
2023-02-02T08:36:20.410Z,40.72
2023-02-02T08:38:47.118Z,51.05
2023-02-02T08:41:16.338Z,42.58
2023-02-02T08:43:43.324Z,51.00
2023-02-02T08:46:11.614Z,51.40
2023-02-02T08:48:38.974Z,46.90
2023-02-02T08:51:06.246Z,51.40
2023-02-02T08:53:33.081Z,48.08
2023-02-02T08:56:03.935Z,47.97
2023-02-02T08:58:30.954Z,57.22
2023-02-02T09:01:08.884Z,53.47
2023-02-02T09:03:35.840Z,47.47
2023-02-02T09:06:06.919Z,41.80
2023-02-02T09:08:34.074Z,41.83
2023-02-02T09:11:11.193Z,50.47
2023-02-02T09:13:38.788Z,62.25
2023-02-02T09:16:09.420Z,41.58
2023-02-02T09:18:35.995Z,40.83
2023-02-02T09:21:04.593Z,43.15
2023-02-02T09:23:32.768Z,43.53
2023-02-02T09:26:29.438Z,50.03
2023-02-02T09:28:57.998Z,48.85
2023-02-02T09:31:25.623Z,42.05
2023-02-02T09:33:52.261Z,52.58
2023-02-02T09:36:20.837Z,52.58
2023-02-02T09:38:47.890Z,43.50
2023-02-02T09:41:39.439Z,52.05
2023-02-02T09:47:00.921Z,47.47
2023-02-02T09:49:53.313Z,47.00
2023-02-02T09:52:46.573Z,48.28
2023-02-02T09:55:34.967Z,46.35
2023-02-02T09:58:22.780Z,48.40
2023-02-02T10:01:10.929Z,47.45
2023-02-02T10:03:40.952Z,48.33
2023-02-02T10:06:17.188Z,52.75
2023-02-02T10:08:52.661Z,44.08
2023-02-02T10:11:25.038Z,50.72
2023-02-02T10:13:54.741Z,48.10
2023-02-02T10:16:22.373Z,43.63
2023-02-02T10:19:03.483Z,50.17
2023-02-02T10:21:40.288Z,42.30
2023-02-02T10:24:18.225Z,43.95
2023-02-02T10:26:54.726Z,50.42
2023-02-02T10:29:48.394Z,41.15
2023-02-02T10:32:24.011Z,46.22
2023-02-02T10:35:07.014Z,39.58
2023-02-02T10:37:56.912Z,37.83
2023-02-02T10:40:36.473Z,37.42
2023-02-02T10:43:37.224Z,54.47
2023-02-02T10:46:04.668Z,37.10
2023-02-02T10:48:35.810Z,41.15
2023-02-02T10:53:33.941Z,31.88
2023-02-02T10:56:06.797Z,37.80
2023-02-02T10:58:43.262Z,36.13
2023-02-02T11:01:11.599Z,37.15
2023-02-02T11:03:39.809Z,33.22
2023-02-02T11:06:26.753Z,32.13
2023-02-02T11:08:59.297Z,43.35
2023-02-02T11:11:28.165Z,29.45
2023-02-02T11:13:59.700Z,31.55
2023-02-02T11:16:41.549Z,40.03
2023-02-02T11:19:18.880Z,31.00
2023-02-02T11:21:48.539Z,28.40
2023-02-02T11:24:37.808Z,34.50
2023-02-02T11:27:12.983Z,41.92
2023-02-02T11:29:39.395Z,29.42
2023-02-02T11:32:33.214Z,33.13
2023-02-02T11:35:02.454Z,31.85
2023-02-02T11:37:29.233Z,36.40
2023-02-02T11:40:29.391Z,35.30
2023-02-02T11:42:57.749Z,35.10
2023-02-02T11:45:37.751Z,27.73
2023-02-02T11:48:26.247Z,34.47
2023-02-02T11:50:54.901Z,34.17
2023-02-02T11:53:36.489Z,35.85
2023-02-02T11:56:06.815Z,24.05
2023-02-02T11:58:46.896Z,20.33
2023-02-02T12:01:22.941Z,29.77
2023-02-02T12:03:50.096Z,32.72
2023-02-02T12:06:22.216Z,29.13
2023-02-02T12:08:48.962Z,34.05
2023-02-02T12:11:42.550Z,28.60
2023-02-02T12:14:16.627Z,26.35
2023-02-02T12:17:05.175Z,28.85
2023-02-02T12:19:52.741Z,27.58
2023-02-02T12:22:29.670Z,23.60
2023-02-02T12:25:14.253Z,26.98
2023-02-02T12:28:11.523Z,20.40
2023-02-02T12:30:46.785Z,18.65
2023-02-02T12:33:38.167Z,30.90
2023-02-02T12:36:07.399Z,28.48
2023-02-02T12:39:04.180Z,28.50
2023-02-02T12:41:39.881Z,22.23
2023-02-02T12:44:06.513Z,19.98
2023-02-02T12:46:57.734Z,22.58
2023-02-02T12:49:58.368Z,20.35
2023-02-02T12:52:35.080Z,33.00
2023-02-02T12:55:51.115Z,26.35
2023-02-02T12:58:25.137Z,22.40
2023-02-02T13:00:54.609Z,29.33
2023-02-02T13:03:29.393Z,19.20
2023-02-02T13:06:09.561Z,20.00
2023-02-02T13:08:53.151Z,28.83
2023-02-02T13:11:40.237Z,26.38
2023-02-02T13:14:11.578Z,26.80
2023-02-02T13:19:21.038Z,32.05
2023-02-02T13:21:48.482Z,23.08
2023-02-02T13:24:20.673Z,25.15
2023-02-02T13:26:48.491Z,22.35
2023-02-02T13:29:31.799Z,28.50
2023-02-02T13:32:03.253Z,31.38
2023-02-02T13:34:38.865Z,23.55
2023-02-02T13:37:25.680Z,24.20
2023-02-02T13:40:06.417Z,28.98
2023-02-02T13:42:38.128Z,34.53
2023-02-02T13:45:34.712Z,32.65
2023-02-02T13:48:22.994Z,30.55
2023-02-02T13:51:21.182Z,30.38
2023-02-02T13:54:08.738Z,31.38
2023-02-02T13:57:09.360Z,26.58
2023-02-02T13:59:38.630Z,28.85
2023-02-02T14:02:07.369Z,35.53
2023-02-02T14:04:33.946Z,35.13
2023-02-02T14:09:33.136Z,28.20
2023-02-02T14:12:07.186Z,38.40
2023-02-02T14:14:35.614Z,27.83
2023-02-02T14:17:08.418Z,32.75
2023-02-02T14:19:35.008Z,31.70
2023-02-02T14:22:05.643Z,38.00
2023-02-02T14:24:35.171Z,38.17
2023-02-02T14:27:05.399Z,33.33
2023-02-02T14:29:32.010Z,33.57
2023-02-02T14:32:06.627Z,38.13
2023-02-02T14:34:41.095Z,33.13
2023-02-02T14:37:22.653Z,37.13
2023-02-02T14:39:58.209Z,33.40
2023-02-02T14:43:02.076Z,51.22
2023-02-02T14:45:35.132Z,32.58
2023-02-02T14:48:20.648Z,30.45
2023-02-02T14:50:55.016Z,39.85
2023-02-02T14:53:25.341Z,31.55
2023-02-02T14:56:01.839Z,31.27
2023-02-02T14:58:30.440Z,34.10
2023-02-02T15:01:11.794Z,26.80
2023-02-02T15:06:29.094Z,28.38
2023-02-02T15:09:20.346Z,38.92
2023-02-02T15:12:16.032Z,31.02
2023-02-02T15:14:53.319Z,33.90
2023-02-02T15:17:22.431Z,34.33
2023-02-02T15:19:54.190Z,32.92
2023-02-02T15:22:30.065Z,29.48
2023-02-02T15:24:58.916Z,26.90
2023-02-02T15:27:26.221Z,30.02
2023-02-02T15:29:55.253Z,39.33
2023-02-02T15:32:24.515Z,30.45
2023-02-02T15:34:53.699Z,30.67
2023-02-02T15:37:23.618Z,33.38
2023-02-02T15:39:56.161Z,35.35
2023-02-02T15:42:45.762Z,40.13
2023-02-02T15:45:31.731Z,36.22
2023-02-02T15:47:59.603Z,34.33
2023-02-02T15:50:26.895Z,43.25
2023-02-02T15:52:54.737Z,42.80
2023-02-02T15:55:25.471Z,37.80
2023-02-02T15:57:54.389Z,34.65
2023-02-02T16:00:27.796Z,38.55
2023-02-02T16:03:02.116Z,39.33
2023-02-02T16:05:31.386Z,44.60
2023-02-02T16:08:05.768Z,34.40
2023-02-02T16:10:34.132Z,39.83
2023-02-02T16:13:01.231Z,37.20
2023-02-02T16:15:29.763Z,42.90
2023-02-02T16:18:03.057Z,44.42
2023-02-02T16:20:33.222Z,38.30
2023-02-02T16:23:02.381Z,45.00
2023-02-02T16:25:34.759Z,42.35
2023-02-02T16:28:01.455Z,49.30
2023-02-02T16:30:38.573Z,38.47
2023-02-02T16:33:33.119Z,53.30
2023-02-02T16:35:59.689Z,52.97
2023-02-02T16:38:31.232Z,51.83
2023-02-02T16:41:08.484Z,50.30
2023-02-02T16:43:37.880Z,59.13
2023-02-02T16:46:10.932Z,56.85
2023-02-02T16:48:57.011Z,56.35
2023-02-02T16:51:33.580Z,58.42
2023-02-02T16:54:12.316Z,59.58
2023-02-02T16:56:41.047Z,58.15
2023-02-02T16:59:29.552Z,47.58
2023-02-02T17:01:58.474Z,58.70
2023-02-02T17:04:27.931Z,63.58
2023-02-02T17:06:56.698Z,61.47
2023-02-02T17:09:36.133Z,60.63
2023-02-02T17:12:09.283Z,52.13
2023-02-02T17:14:50.841Z,61.85
2023-02-02T17:17:17.388Z,58.38
2023-02-02T17:19:43.892Z,70.07
2023-02-02T17:22:10.859Z,62.65
2023-02-02T17:24:37.544Z,60.33
2023-02-02T17:27:04.564Z,58.88
2023-02-02T17:29:31.489Z,61.40
2023-02-02T17:31:58.066Z,72.82
2023-02-02T17:34:24.968Z,58.03
2023-02-02T17:36:51.591Z,63.25
2023-02-02T17:39:18.117Z,63.00
2023-02-02T17:41:48.561Z,63.45
2023-02-02T17:44:15.109Z,65.05
2023-02-02T17:46:41.643Z,57.05
2023-02-02T17:49:08.219Z,61.97
2023-02-02T17:51:41.003Z,66.03
2023-02-02T17:54:12.396Z,67.85
2023-02-02T17:56:39.408Z,75.88
2023-02-02T17:59:06.157Z,71.18
2023-02-02T18:01:34.787Z,68.63
2023-02-02T18:04:02.193Z,66.88
2023-02-02T18:06:28.746Z,68.28
2023-02-02T18:08:55.269Z,78.20
2023-02-02T18:11:21.835Z,76.00
2023-02-02T18:13:48.361Z,76.82
2023-02-02T18:16:14.960Z,79.35
2023-02-02T18:18:41.525Z,84.43
2023-02-02T18:21:09.887Z,78.85
2023-02-02T18:23:37.434Z,78.13
2023-02-02T18:26:12.976Z,77.80
2023-02-02T18:28:39.658Z,76.97
2023-02-02T18:31:11.010Z,77.22
2023-02-02T18:33:40.024Z,79.60
2023-02-02T18:36:11.778Z,76.13
2023-02-02T18:38:40.277Z,81.93
2023-02-02T18:41:07.442Z,77.75
2023-02-02T18:43:34.023Z,82.03
2023-02-02T18:46:02.785Z,77.82
2023-02-02T18:48:29.401Z,77.18
2023-02-02T18:50:56.011Z,87.50
2023-02-02T18:53:22.581Z,72.30
2023-02-02T18:55:49.136Z,78.60
2023-02-02T18:58:16.210Z,79.22
2023-02-02T19:00:43.550Z,62.83
2023-02-02T19:03:10.071Z,73.30
2023-02-02T19:05:55.069Z,71.88
2023-02-02T19:08:21.949Z,73.82
2023-02-02T19:10:50.302Z,79.18
2023-02-02T19:13:19.196Z,62.08
2023-02-02T19:15:49.594Z,79.57
2023-02-02T19:18:25.171Z,81.68
2023-02-02T19:20:52.483Z,68.88
2023-02-02T19:23:23.230Z,78.68
2023-02-02T19:25:54.040Z,69.53
2023-02-02T19:28:23.572Z,74.38
2023-02-02T19:30:52.395Z,71.00
2023-02-02T19:33:19.619Z,74.22
2023-02-02T19:35:49.139Z,79.85
2023-02-02T19:38:17.488Z,73.80
2023-02-02T19:40:44.334Z,66.68
2023-02-02T19:43:10.744Z,65.95
2023-02-02T19:45:39.546Z,74.07
2023-02-02T19:48:31.278Z,74.20
2023-02-02T19:50:58.027Z,64.95
2023-02-02T19:53:30.654Z,77.07
2023-02-02T19:55:57.215Z,70.85
2023-02-02T19:58:28.067Z,63.13
2023-02-02T20:00:57.106Z,68.05
2023-02-02T20:03:28.538Z,63.25
2023-02-02T20:05:56.559Z,63.92
2023-02-02T20:08:43.268Z,61.10
2023-02-02T20:11:36.981Z,65.70
2023-02-02T20:14:21.503Z,64.68
2023-02-02T20:16:53.892Z,58.67
2023-02-02T20:19:23.323Z,72.78
2023-02-02T20:21:51.891Z,73.00
2023-02-02T20:24:22.681Z,73.68
2023-02-02T20:26:49.827Z,58.15
2023-02-02T20:29:19.300Z,69.88
2023-02-02T20:31:46.998Z,65.18
2023-02-02T20:34:25.201Z,61.78
2023-02-02T20:37:10.593Z,71.75
2023-02-02T20:39:41.958Z,65.43
2023-02-02T20:42:08.470Z,64.30
2023-02-02T20:44:35.254Z,59.38
2023-02-02T20:47:02.758Z,65.60
2023-02-02T20:49:31.562Z,57.45
2023-02-02T20:52:00.290Z,58.63
2023-02-02T20:54:26.851Z,62.30
2023-02-02T20:56:54.271Z,57.03
2023-02-02T20:59:20.994Z,64.05
2023-02-02T21:01:49.621Z,54.67
2023-02-02T21:04:17.492Z,53.05
2023-02-02T21:06:44.804Z,59.15
2023-02-02T21:09:11.726Z,62.30
2023-02-02T21:11:38.764Z,62.25
2023-02-02T21:14:05.625Z,61.20
2023-02-02T21:16:32.488Z,54.45
2023-02-02T21:18:59.143Z,64.60
2023-02-02T21:21:25.725Z,56.13
2023-02-02T21:23:52.565Z,54.78
2023-02-02T21:26:22.055Z,63.53
2023-02-02T21:28:49.219Z,51.03
2023-02-02T21:31:17.734Z,51.22
2023-02-02T21:33:45.518Z,56.72
2023-02-02T21:36:29.409Z,58.95
2023-02-02T21:39:01.980Z,49.80
2023-02-02T21:41:29.503Z,56.80
2023-02-02T21:43:57.193Z,47.38
2023-02-02T21:46:29.951Z,58.75
2023-02-02T21:48:56.571Z,62.40
2023-02-02T21:51:25.963Z,52.38
2023-02-02T21:53:52.850Z,59.50
2023-02-02T21:56:28.064Z,50.58
2023-02-02T21:58:58.188Z,59.10
2023-02-02T22:01:33.814Z,49.97
2023-02-02T22:04:00.693Z,53.50
2023-02-02T22:06:29.159Z,47.92
2023-02-02T22:09:19.915Z,53.08
2023-02-02T22:11:58.473Z,55.88
2023-02-02T22:14:39.244Z,62.17
2023-02-02T22:17:26.804Z,41.75
2023-02-02T22:19:59.139Z,42.40
2023-02-02T22:22:29.072Z,45.95
2023-02-02T22:25:00.485Z,44.50
2023-02-02T22:27:40.096Z,41.20
2023-02-02T22:30:16.597Z,44.83
2023-02-02T22:32:43.242Z,43.92
2023-02-02T22:35:09.736Z,38.47
2023-02-02T22:37:36.302Z,40.75
2023-02-02T22:40:03.241Z,53.95
2023-02-02T22:42:29.864Z,42.63
2023-02-02T22:44:56.496Z,41.03
2023-02-02T22:47:23.143Z,39.08
2023-02-02T22:49:49.700Z,34.67
2023-02-02T22:52:16.222Z,35.53
2023-02-02T22:54:42.750Z,44.08
2023-02-02T22:57:09.657Z,37.53
2023-02-02T22:59:36.516Z,47.70
2023-02-02T23:02:03.041Z,38.53
2023-02-02T23:04:49.831Z,41.88
2023-02-02T23:07:30.397Z,37.70
2023-02-02T23:09:57.128Z,40.90
2023-02-02T23:12:23.648Z,33.53
2023-02-02T23:14:50.229Z,42.00
2023-02-02T23:17:17.763Z,36.13
2023-02-02T23:19:44.420Z,41.47
2023-02-02T23:22:10.970Z,45.90
2023-02-02T23:24:38.810Z,40.80
2023-02-02T23:27:05.538Z,45.92
2023-02-02T23:29:32.170Z,35.17
2023-02-02T23:31:59.138Z,50.45
2023-02-02T23:34:25.652Z,43.15
2023-02-02T23:36:53.515Z,43.00
2023-02-02T23:39:20.167Z,36.78
2023-02-02T23:41:46.934Z,39.45
2023-02-02T23:44:14.112Z,42.38
2023-02-02T23:46:41.061Z,34.25
2023-02-02T23:49:07.721Z,36.58
2023-02-02T23:51:34.659Z,35.65
2023-02-02T23:54:01.698Z,36.00
2023-02-02T23:56:28.704Z,45.13
2023-02-02T23:58:55.301Z,39.72
